This is the latest recevied weather packets stored in our database for station/object F5TND-3. If no packets are shown the sender has not sent any weather packets the latest 10 day(s).
| Time | Temp. | Humidity | Pressure | Rain* | Wind** | Luminosity | Snow |
|---|---|---|---|---|---|---|---|
| 1787465300 | 19.44° C | 43% | 1015.2 hPa | - | - | - | - |
| 1787464100 | 17.78° C | 46% | 1015.1 hPa | - | - | - | - |
| 1787462900 | 17.78° C | 48% | 1015 hPa | - | - | - | - |
| 1787462483 | 17.22° C | 48% | 1014.9 hPa | - | - | - | - |
| 1787458885 | 17.78° C | 47% | 1014.7 hPa | - | - | - | - |
| 1787457685 | 17.78° C | 47% | 1014.8 hPa | - | - | - | - |
| 1787454085 | 17.78° C | 45% | 1015.1 hPa | - | - | - | - |
| 1787451685 | 18.33° C | 42% | 1015.4 hPa | - | - | - | - |
| 1787450485 | 18.89° C | 42% | 1015.4 hPa | - | - | - | - |
| 1787448085 | 18.89° C | 41% | 1015.7 hPa | - | - | - | - |
| 1787446885 | 18.89° C | 40% | 1015.5 hPa | - | - | - | - |
| 1787445685 | 19.44° C | 39% | 1015.8 hPa | - | - | - | - |
| 1787444488 | 19.44° C | 38% | 1015.8 hPa | - | - | - | - |
| 1787443282 | 20° C | 37% | 1015.9 hPa | - | - | - | - |
| 1787442082 | 20° C | 37% | 1015.9 hPa | - | - | - | - |
| 1787440882 | 20.56° C | 37% | 1015.6 hPa | - | - | - | - |
| 1787439682 | 20° C | 37% | 1015.5 hPa | - | - | - | - |
| 1787438482 | 20° C | 38% | 1015.6 hPa | - | - | - | - |
| 1787437282 | 20° C | 39% | 1015.5 hPa | - | - | - | - |
| 1787436082 | 20° C | 40% | 1015.5 hPa | - | - | - | - |
| 1787434882 | 20° C | 39% | 1015.5 hPa | - | - | - | - |
| 1787433682 | 20° C | 40% | 1015.6 hPa | - | - | - | - |
| 1787432482 | 20.56° C | 39% | 1015.8 hPa | - | - | - | - |
| 1787431282 | 20.56° C | 39% | 1015.7 hPa | - | - | - | - |
| 1787430082 | 20.56° C | 39% | 1016 hPa | - | - | - | - |
* Rain since midnight (hover to see other rain measurements)
** Current wind speed in m/s (hover to see current wind gust speed)